Time;durP1;ratioP1;P1;durP2;ratioP2;P2;SDS_P1;SDS_P2;PMS_P1;PMS_P2;Temp;Humidity;BMP_temperature;BMP_pressure;BME280_temperature;BME280_humidity;BME280_pressure;Samples;Min_cycle;Max_cycle;Signal;HPM_P1;HPM_P2
2022/10/21 00:00:30;;;;;;;;;;;13.40;80.40;;;;;;5058828;28;20003;-76
2022/10/21 00:02:55;;;;;;;;;;;13.40;80.40;;;;;;5075358;28;19962;-77
2022/10/21 00:05:21;;;;;;;;;;;13.40;80.40;;;;;;5061403;28;19948;-75
2022/10/21 00:07:46;;;;;;;;;;;13.40;80.50;;;;;;5054248;28;19939;-75
2022/10/21 00:10:12;;;;;;;;;;;13.50;80.50;;;;;;5079238;28;20415;-76
2022/10/21 00:12:37;;;;;;;;;;;13.40;80.50;;;;;;5078940;28;19924;-76
2022/10/21 00:15:06;;;;;;;;;;;13.50;80.50;;;;;;5077657;28;20416;-75
2022/10/21 00:17:33;;;;;;;;;;;13.40;80.50;;;;;;5058666;28;19959;-76
2022/10/21 00:19:58;;;;;;;;;;;13.50;80.50;;;;;;5075782;28;19924;-77
2022/10/21 00:22:24;;;;;;;;;;;13.50;80.50;;;;;;5075948;28;19946;-76
2022/10/21 00:24:49;;;;;;;;;;;13.50;80.50;;;;;;5063552;28;20006;-77
2022/10/21 00:27:15;;;;;;;;;;;13.50;80.50;;;;;;5077686;28;19924;-76
2022/10/21 00:29:40;;;;;;;;;;;13.50;80.60;;;;;;5078898;28;19920;-76
2022/10/21 00:32:06;;;;;;;;;;;13.50;80.50;;;;;;5079266;28;19960;-77
2022/10/21 00:34:31;;;;;;;;;;;13.40;80.50;;;;;;5078655;28;19967;-76
2022/10/21 00:36:57;;;;;;;;;;;13.40;80.50;;;;;;5056180;28;20039;-77
2022/10/21 00:39:22;;;;;;;;;;;13.40;80.50;;;;;;5046666;28;19924;-75
2022/10/21 00:41:48;;;;;;;;;;;13.50;80.60;;;;;;5076392;28;19927;-75
2022/10/21 00:44:13;;;;;;;;;;;13.50;80.60;;;;;;5071211;28;19928;-76
2022/10/21 00:46:43;;;;;;;;;;;13.50;80.60;;;;;;5074153;28;20440;-77
2022/10/21 00:49:27;;;;;;;;;;;13.50;80.60;;;;;;5057274;28;19920;-74
2022/10/21 00:51:54;;;;;;;;;;;13.40;80.50;;;;;;5071698;28;20060;-76
2022/10/21 00:54:20;;;;;;;;;;;13.40;80.60;;;;;;5077345;28;19928;-75
2022/10/21 00:56:46;;;;;;;;;;;13.40;80.60;;;;;;5070801;28;19924;-75
2022/10/21 00:59:11;;;;;;;;;;;13.50;80.60;;;;;;5077275;28;19916;-76
2022/10/21 01:01:37;;;;;;;;;;;13.40;80.60;;;;;;5075456;28;19930;-75
2022/10/21 01:04:03;;;;;;;;;;;13.50;80.60;;;;;;5078900;28;20716;-75
2022/10/21 01:06:28;;;;;;;;;;;13.40;80.60;;;;;;5078511;28;19924;-75
2022/10/21 01:08:54;;;;;;;;;;;13.40;80.60;;;;;;5073673;28;19916;-76
2022/10/21 01:11:19;;;;;;;;;;;13.40;80.60;;;;;;5074871;28;20003;-76
2022/10/21 01:13:49;;;;;;;;;;;13.40;80.60;;;;;;5076581;28;19920;-75
2022/10/21 01:16:33;;;;;;;;;;;13.40;80.60;;;;;;5072776;28;19930;-76
2022/10/21 01:19:05;;;;;;;;;;;13.40;80.60;;;;;;5070500;28;20491;-75
2022/10/21 01:21:32;;;;;;;;;;;13.40;80.60;;;;;;5055834;28;19920;-76
2022/10/21 01:24:16;;;;;;;;;;;13.40;80.60;;;;;;5069579;28;19920;-75
2022/10/21 01:26:51;;;;;;;;;;;13.40;80.70;;;;;;5074938;28;19938;-76
2022/10/21 01:29:19;;;;;;;;;;;13.40;80.70;;;;;;5076291;28;19923;-76
2022/10/21 01:31:54;;;;;;;;;;;13.40;80.70;;;;;;5071670;28;19921;-76
2022/10/21 01:34:23;;;;;;;;;;;13.40;80.70;;;;;;5075226;28;19934;-76
2022/10/21 01:36:54;;;;;;;;;;;13.30;80.60;;;;;;5055791;28;19930;-77
2022/10/21 01:39:19;;;;;;;;;;;13.30;80.70;;;;;;5076616;28;19924;-76
2022/10/21 01:41:51;;;;;;;;;;;13.30;80.70;;;;;;5075638;28;19920;-76
2022/10/21 01:44:16;;;;;;;;;;;13.30;80.80;;;;;;5073328;28;20404;-75
2022/10/21 01:46:45;;;;;;;;;;;13.30;80.80;;;;;;5072382;28;19916;-75
2022/10/21 01:49:13;;;;;;;;;;;13.20;80.70;;;;;;5070987;28;19970;-75
2022/10/21 01:51:38;;;;;;;;;;;13.20;80.80;;;;;;5056982;28;20023;-76
2022/10/21 01:54:07;;;;;;;;;;;13.20;80.80;;;;;;5073310;28;19943;-76
2022/10/21 01:56:32;;;;;;;;;;;13.20;80.80;;;;;;5071402;28;24501;-76
2022/10/21 01:58:58;;;;;;;;;;;13.20;80.90;;;;;;5073529;28;19917;-77
2022/10/21 02:01:23;;;;;;;;;;;13.20;80.90;;;;;;5074984;28;20001;-77
2022/10/21 02:03:50;;;;;;;;;;;13.20;80.90;;;;;;5072057;28;20007;-76
2022/10/21 02:06:24;;;;;;;;;;;13.20;81.00;;;;;;5073311;28;19966;-76
2022/10/21 02:08:49;;;;;;;;;;;13.10;81.00;;;;;;5058270;28;19931;-77
2022/10/21 02:11:17;;;;;;;;;;;13.10;81.00;;;;;;5058642;28;19927;-78
2022/10/21 02:14:00;;;;;;;;;;;13.10;81.00;;;;;;5060900;28;19924;-76
2022/10/21 02:16:27;;;;;;;;;;;13.10;81.00;;;;;;5072971;28;19920;-76
2022/10/21 02:18:53;;;;;;;;;;;13.10;81.00;;;;;;5058534;28;19912;-76
2022/10/21 02:21:19;;;;;;;;;;;13.10;81.10;;;;;;5076059;28;20027;-76
2022/10/21 02:23:47;;;;;;;;;;;13.10;81.00;;;;;;5054808;28;20004;-76
2022/10/21 02:26:13;;;;;;;;;;;13.10;81.10;;;;;;5073662;28;20011;-75
2022/10/21 02:28:38;;;;;;;;;;;13.10;81.00;;;;;;5075528;28;20000;-76
2022/10/21 02:31:10;;;;;;;;;;;13.10;81.10;;;;;;5072025;28;20466;-76
2022/10/21 02:33:46;;;;;;;;;;;13.10;81.10;;;;;;5073998;28;20001;-75
2022/10/21 02:36:16;;;;;;;;;;;13.10;81.10;;;;;;5075937;28;19928;-76
2022/10/21 02:38:42;;;;;;;;;;;13.10;81.10;;;;;;5069781;28;20373;-75
2022/10/21 02:41:09;;;;;;;;;;;13.00;81.10;;;;;;5073041;28;19920;-76
2022/10/21 02:43:38;;;;;;;;;;;13.00;81.10;;;;;;5068167;28;19927;-75
2022/10/21 02:46:05;;;;;;;;;;;13.00;81.10;;;;;;5068190;28;19931;-75
2022/10/21 02:48:33;;;;;;;;;;;13.00;81.20;;;;;;5066855;28;19927;-75
2022/10/21 02:50:59;;;;;;;;;;;13.00;81.20;;;;;;5071595;28;19920;-75
2022/10/21 02:53:25;;;;;;;;;;;13.00;81.20;;;;;;5071125;28;19928;-75
2022/10/21 02:55:50;;;;;;;;;;;12.90;81.20;;;;;;5076643;28;20561;-75
2022/10/21 02:58:16;;;;;;;;;;;12.90;81.20;;;;;;5069587;28;19997;-76
2022/10/21 03:00:41;;;;;;;;;;;12.90;81.20;;;;;;5075237;28;19916;-76
2022/10/21 03:03:07;;;;;;;;;;;12.90;81.30;;;;;;5074128;28;20458;-75
2022/10/21 03:05:32;;;;;;;;;;;12.90;81.30;;;;;;5077500;28;19931;-76
2022/10/21 03:07:58;;;;;;;;;;;12.80;81.20;;;;;;5057597;28;19916;-76
2022/10/21 03:10:23;;;;;;;;;;;12.80;81.20;;;;;;5076893;28;19916;-75
2022/10/21 03:12:49;;;;;;;;;;;12.80;81.30;;;;;;5074891;28;20477;-75
2022/10/21 03:15:14;;;;;;;;;;;12.80;81.30;;;;;;5079243;28;20014;-76
2022/10/21 03:17:40;;;;;;;;;;;12.80;81.30;;;;;;5057910;28;20565;-76
2022/10/21 03:20:05;;;;;;;;;;;12.70;81.30;;;;;;5073334;28;19927;-77
2022/10/21 03:22:32;;;;;;;;;;;12.70;81.30;;;;;;5059133;28;19923;-75
2022/10/21 03:24:57;;;;;;;;;;;12.70;81.40;;;;;;5077161;28;19920;-75
2022/10/21 03:27:23;;;;;;;;;;;12.70;81.30;;;;;;5077614;28;19916;-75
2022/10/21 03:29:48;;;;;;;;;;;12.60;81.30;;;;;;5062967;28;20365;-75
2022/10/21 03:32:13;;;;;;;;;;;12.70;81.40;;;;;;5060646;28;19920;-74
2022/10/21 03:34:39;;;;;;;;;;;12.60;81.40;;;;;;5075715;28;19930;-76
2022/10/21 03:37:04;;;;;;;;;;;12.60;81.40;;;;;;5072267;28;19924;-77
2022/10/21 03:39:30;;;;;;;;;;;12.60;81.50;;;;;;5069101;28;19932;-76
2022/10/21 03:41:55;;;;;;;;;;;12.60;81.50;;;;;;5075943;28;20285;-77
2022/10/21 03:44:21;;;;;;;;;;;12.50;81.50;;;;;;5072571;28;20031;-74
2022/10/21 03:46:46;;;;;;;;;;;12.50;81.50;;;;;;5069707;28;20419;-75
2022/10/21 03:49:12;;;;;;;;;;;12.50;81.50;;;;;;5070722;28;19959;-74
2022/10/21 03:51:37;;;;;;;;;;;12.50;81.60;;;;;;5062875;28;20280;-75
2022/10/21 03:54:03;;;;;;;;;;;12.50;81.60;;;;;;5075041;28;19923;-75
2022/10/21 03:56:28;;;;;;;;;;;12.40;81.60;;;;;;5074415;28;19965;-75
2022/10/21 03:58:54;;;;;;;;;;;12.40;82.40;;;;;;5076986;28;19928;-75
2022/10/21 04:01:19;;;;;;;;;;;12.40;81.60;;;;;;5063370;28;19924;-75
2022/10/21 04:03:45;;;;;;;;;;;12.40;81.70;;;;;;5077453;28;20550;-73
2022/10/21 04:06:10;;;;;;;;;;;12.40;81.70;;;;;;5076528;28;20380;-74
2022/10/21 04:08:35;;;;;;;;;;;12.30;81.70;;;;;;5074806;28;19916;-73
2022/10/21 04:11:01;;;;;;;;;;;12.30;81.70;;;;;;5073445;28;19920;-75
2022/10/21 04:13:27;;;;;;;;;;;12.30;81.70;;;;;;5082884;28;19993;-75
2022/10/21 04:16:01;;;;;;;;;;;12.30;81.70;;;;;;5081644;28;19935;-75
2022/10/21 04:18:27;;;;;;;;;;;12.30;81.80;;;;;;5067569;28;19951;-76
2022/10/21 04:20:52;;;;;;;;;;;12.20;81.80;;;;;;5066060;28;20424;-75
2022/10/21 04:23:18;;;;;;;;;;;12.20;81.80;;;;;;5055048;28;19916;-76
2022/10/21 04:25:44;;;;;;;;;;;12.20;81.80;;;;;;5079946;28;19917;-75
2022/10/21 04:28:09;;;;;;;;;;;12.20;81.80;;;;;;5062823;28;19927;-74
2022/10/21 04:30:35;;;;;;;;;;;12.20;81.90;;;;;;5083634;28;19924;-75
2022/10/21 04:33:00;;;;;;;;;;;12.20;81.90;;;;;;5079818;28;20345;-76
2022/10/21 04:35:26;;;;;;;;;;;12.10;81.80;;;;;;5059785;28;19924;-74
2022/10/21 04:37:51;;;;;;;;;;;12.10;81.80;;;;;;5079359;28;19916;-75
2022/10/21 04:40:17;;;;;;;;;;;12.10;81.90;;;;;;5079798;28;19948;-76
2022/10/21 04:42:46;;;;;;;;;;;12.10;81.90;;;;;;5060051;28;19920;-78
2022/10/21 04:45:11;;;;;;;;;;;12.10;81.90;;;;;;5059432;28;19920;-77
2022/10/21 04:47:37;;;;;;;;;;;12.10;81.90;;;;;;5074114;28;20565;-77
2022/10/21 04:50:02;;;;;;;;;;;12.00;81.90;;;;;;5054668;28;20003;-74
2022/10/21 04:52:28;;;;;;;;;;;12.00;82.00;;;;;;5057575;28;19946;-75
2022/10/21 04:54:53;;;;;;;;;;;12.00;82.00;;;;;;5072225;28;20723;-74
2022/10/21 04:57:19;;;;;;;;;;;12.00;82.00;;;;;;5075349;28;20043;-75
2022/10/21 04:59:44;;;;;;;;;;;12.00;82.00;;;;;;5074347;28;19920;-76
2022/10/21 05:02:10;;;;;;;;;;;12.00;82.00;;;;;;5074991;28;19917;-76
2022/10/21 05:04:35;;;;;;;;;;;12.00;82.00;;;;;;5078048;28;19916;-76
2022/10/21 05:07:01;;;;;;;;;;;11.90;82.00;;;;;;5060510;28;19917;-75
2022/10/21 05:09:26;;;;;;;;;;;11.90;82.80;;;;;;5071328;28;20002;-75
2022/10/21 05:11:52;;;;;;;;;;;11.90;82.00;;;;;;5050156;28;20050;-77
2022/10/21 05:14:17;;;;;;;;;;;11.90;82.00;;;;;;5078216;28;20392;-75
2022/10/21 05:16:43;;;;;;;;;;;11.90;82.10;;;;;;5057672;28;19916;-76
2022/10/21 05:19:09;;;;;;;;;;;11.90;82.10;;;;;;5075775;28;20447;-75
2022/10/21 05:21:35;;;;;;;;;;;11.90;82.10;;;;;;5059985;28;20542;-77
2022/10/21 05:24:00;;;;;;;;;;;11.90;82.10;;;;;;5069957;28;19945;-76
2022/10/21 05:26:27;;;;;;;;;;;11.80;82.10;;;;;;5056321;28;19927;-77
2022/10/21 05:28:53;;;;;;;;;;;11.80;82.20;;;;;;5072732;28;19952;-76
2022/10/21 05:31:18;;;;;;;;;;;11.80;82.10;;;;;;5074324;28;20016;-75
2022/10/21 05:33:44;;;;;;;;;;;11.80;82.90;;;;;;5074934;28;19920;-76
2022/10/21 05:36:09;;;;;;;;;;;11.80;82.10;;;;;;5056867;28;19966;-75
2022/10/21 05:38:35;;;;;;;;;;;11.80;82.20;;;;;;5074655;28;19927;-77
2022/10/21 05:41:00;;;;;;;;;;;11.80;82.20;;;;;;5051985;28;19940;-75
2022/10/21 05:43:29;;;;;;;;;;;11.80;82.20;;;;;;5072141;28;19924;-76
2022/10/21 05:45:54;;;;;;;;;;;11.80;82.20;;;;;;5070256;28;19921;-75
2022/10/21 05:48:20;;;;;;;;;;;11.70;82.20;;;;;;5069668;28;19923;-76
2022/10/21 05:50:45;;;;;;;;;;;11.70;82.20;;;;;;5068634;28;19916;-74
2022/10/21 05:53:11;;;;;;;;;;;11.80;82.30;;;;;;5070776;28;19928;-74
2022/10/21 05:55:37;;;;;;;;;;;11.70;82.30;;;;;;5070923;28;19927;-77
2022/10/21 05:58:02;;;;;;;;;;;11.70;82.30;;;;;;5070748;28;20011;-76
2022/10/21 06:00:27;;;;;;;;;;;11.70;82.30;;;;;;5075941;28;19917;-75
2022/10/21 06:02:53;;;;;;;;;;;11.70;82.30;;;;;;5073969;28;19923;-76
2022/10/21 06:05:19;;;;;;;;;;;11.70;82.30;;;;;;5074910;28;19997;-75
2022/10/21 06:07:45;;;;;;;;;;;11.70;82.30;;;;;;5058373;28;20474;-76
2022/10/21 06:10:11;;;;;;;;;;;11.70;82.30;;;;;;5059656;28;19917;-76
2022/10/21 06:12:36;;;;;;;;;;;11.60;82.30;;;;;;5077429;28;19916;-75
2022/10/21 06:15:02;;;;;;;;;;;11.60;82.30;;;;;;5059246;28;19920;-76
2022/10/21 06:17:28;;;;;;;;;;;11.70;82.40;;;;;;5070308;28;20442;-76
2022/10/21 06:19:53;;;;;;;;;;;11.60;82.30;;;;;;5060492;28;19920;-75
2022/10/21 06:22:18;;;;;;;;;;;11.60;82.30;;;;;;5055149;28;20400;-75
2022/10/21 06:24:44;;;;;;;;;;;11.60;82.30;;;;;;5074452;28;19951;-76
2022/10/21 06:27:10;;;;;;;;;;;11.60;82.30;;;;;;5046745;28;19916;-75
2022/10/21 06:29:35;;;;;;;;;;;11.60;82.30;;;;;;5078832;28;19970;-76
2022/10/21 06:32:01;;;;;;;;;;;11.60;82.30;;;;;;5074001;28;20385;-75
2022/10/21 06:34:26;;;;;;;;;;;11.60;82.30;;;;;;5073335;28;19920;-76
2022/10/21 06:36:52;;;;;;;;;;;11.60;82.40;;;;;;5076963;28;19952;-75
2022/10/21 06:39:17;;;;;;;;;;;11.60;82.40;;;;;;5063727;28;19995;-76
2022/10/21 06:41:43;;;;;;;;;;;11.60;82.40;;;;;;5061260;28;19916;-75
2022/10/21 06:44:08;;;;;;;;;;;11.70;82.50;;;;;;5078875;28;20000;-75
2022/10/21 06:46:34;;;;;;;;;;;11.70;82.50;;;;;;5080231;28;20276;-74
2022/10/21 06:48:59;;;;;;;;;;;11.70;82.40;;;;;;5063831;28;20014;-75
2022/10/21 06:51:24;;;;;;;;;;;11.70;82.40;;;;;;5074086;28;19916;-74
2022/10/21 06:53:51;;;;;;;;;;;11.70;82.50;;;;;;5078204;28;20434;-76
2022/10/21 06:56:16;;;;;;;;;;;11.70;82.40;;;;;;5075676;28;21318;-75
2022/10/21 06:58:45;;;;;;;;;;;11.70;82.40;;;;;;5059886;28;20003;-76
2022/10/21 07:01:11;;;;;;;;;;;11.70;82.40;;;;;;5061305;28;19923;-76
2022/10/21 07:03:36;;;;;;;;;;;11.70;82.40;;;;;;5057667;28;19923;-75
2022/10/21 07:06:02;;;;;;;;;;;11.80;82.40;;;;;;5077670;28;19924;-74
2022/10/21 07:08:28;;;;;;;;;;;11.80;82.40;;;;;;5078229;28;20000;-75
2022/10/21 07:10:53;;;;;;;;;;;11.80;82.40;;;;;;5060403;28;19926;-75
2022/10/21 07:13:19;;;;;;;;;;;11.80;82.40;;;;;;5076864;28;19962;-76
2022/10/21 07:15:44;;;;;;;;;;;11.90;82.40;;;;;;5077592;28;20573;-76
2022/10/21 07:18:10;;;;;;;;;;;11.90;82.40;;;;;;5057121;28;20452;-75
2022/10/21 07:20:35;;;;;;;;;;;11.90;82.30;;;;;;5063236;28;19926;-77
2022/10/21 07:23:01;;;;;;;;;;;11.90;82.30;;;;;;5077996;28;19966;-76
2022/10/21 07:25:26;;;;;;;;;;;11.90;82.40;;;;;;5078896;28;20295;-75
2022/10/21 07:27:52;;;;;;;;;;;11.90;82.30;;;;;;5078784;28;19932;-76
2022/10/21 07:30:17;;;;;;;;;;;12.00;83.20;;;;;;5076189;28;19921;-77
2022/10/21 07:32:43;;;;;;;;;;;12.00;82.40;;;;;;5076397;28;20277;-75
2022/10/21 07:35:08;;;;;;;;;;;12.00;82.30;;;;;;5078802;28;19924;-74
2022/10/21 07:37:34;;;;;;;;;;;12.00;82.30;;;;;;5077782;28;19924;-76
2022/10/21 07:39:59;;;;;;;;;;;12.00;82.30;;;;;;5075685;28;19969;-75
2022/10/21 07:42:26;;;;;;;;;;;12.10;82.30;;;;;;5077938;28;19921;-75
2022/10/21 07:44:52;;;;;;;;;;;12.00;82.20;;;;;;5078453;28;19956;-76
2022/10/21 07:47:17;;;;;;;;;;;12.10;82.30;;;;;;5077558;28;19959;-76
2022/10/21 07:49:43;;;;;;;;;;;12.10;82.20;;;;;;5075490;28;19958;-77
2022/10/21 07:52:08;;;;;;;;;;;12.10;82.20;;;;;;5071848;28;19959;-76
2022/10/21 07:54:34;;;;;;;;;;;12.10;82.20;;;;;;5062396;28;19924;-75
2022/10/21 07:56:59;;;;;;;;;;;12.10;82.20;;;;;;5075816;28;20307;-77
2022/10/21 07:59:25;;;;;;;;;;;12.20;82.20;;;;;;5075454;28;19916;-76
2022/10/21 08:01:51;;;;;;;;;;;12.20;82.20;;;;;;5070462;28;19916;-77
2022/10/21 08:04:17;;;;;;;;;;;12.20;82.30;;;;;;5062483;28;19920;-76
2022/10/21 08:06:43;;;;;;;;;;;12.20;82.20;;;;;;5076517;28;20482;-77
2022/10/21 08:09:08;;;;;;;;;;;12.20;82.20;;;;;;5075853;28;19920;-76
2022/10/21 08:11:34;;;;;;;;;;;12.20;82.20;;;;;;5075085;28;19920;-77
2022/10/21 08:14:00;;;;;;;;;;;12.20;82.10;;;;;;5074328;28;19917;-76
2022/10/21 08:16:25;;;;;;;;;;;12.20;82.10;;;;;;5078806;28;19920;-77
2022/10/21 08:18:51;;;;;;;;;;;12.30;82.20;;;;;;5053835;28;20388;-77
2022/10/21 08:21:16;;;;;;;;;;;12.30;82.20;;;;;;5078096;28;19981;-77
2022/10/21 08:23:42;;;;;;;;;;;12.30;82.20;;;;;;5076310;28;19959;-77
2022/10/21 08:26:11;;;;;;;;;;;12.30;82.20;;;;;;5077831;28;19943;-77
2022/10/21 08:28:37;;;;;;;;;;;12.30;82.20;;;;;;5076186;28;19927;-76
2022/10/21 08:31:06;;;;;;;;;;;12.30;82.20;;;;;;5076234;28;20011;-76
2022/10/21 08:33:31;;;;;;;;;;;12.30;82.20;;;;;;5072844;28;20015;-77
2022/10/21 08:35:57;;;;;;;;;;;12.30;82.10;;;;;;5075363;28;20003;-77
2022/10/21 08:38:22;;;;;;;;;;;12.30;82.10;;;;;;5057889;28;19955;-78
2022/10/21 08:40:48;;;;;;;;;;;12.40;82.20;;;;;;5073850;28;19959;-76
2022/10/21 08:43:15;;;;;;;;;;;12.40;82.10;;;;;;5076432;28;19924;-76
2022/10/21 08:45:57;;;;;;;;;;;12.40;82.20;;;;;;5077759;28;19981;-77
2022/10/21 08:48:28;;;;;;;;;;;12.40;82.10;;;;;;5074030;28;19924;-77
2022/10/21 08:50:53;;;;;;;;;;;12.40;82.10;;;;;;5075662;28;19916;-76
2022/10/21 08:53:20;;;;;;;;;;;12.40;82.10;;;;;;5071686;28;20023;-78
2022/10/21 08:55:46;;;;;;;;;;;12.50;82.50;;;;;;5073778;28;19982;-77
2022/10/21 08:58:15;;;;;;;;;;;12.50;82.10;;;;;;5072488;28;19924;-78
2022/10/21 09:00:44;;;;;;;;;;;12.50;82.10;;;;;;5074300;28;19924;-77
2022/10/21 09:03:29;;;;;;;;;;;12.50;82.10;;;;;;5076285;28;19987;-77
2022/10/21 09:06:08;;;;;;;;;;;12.60;82.10;;;;;;5074662;28;19928;-77
2022/10/21 09:08:49;;;;;;;;;;;12.60;82.10;;;;;;5077252;28;19924;-76
2022/10/21 09:11:18;;;;;;;;;;;12.60;82.10;;;;;;5077831;28;20200;-77
2022/10/21 09:14:02;;;;;;;;;;;12.60;82.00;;;;;;5077872;28;20527;-77
2022/10/21 09:16:46;;;;;;;;;;;12.60;82.00;;;;;;5073921;28;20015;-76
2022/10/21 09:19:29;;;;;;;;;;;12.70;82.00;;;;;;5074445;28;20030;-76
2022/10/21 09:22:04;;;;;;;;;;;12.70;82.00;;;;;;5071637;28;19916;-76
2022/10/21 09:24:34;;;;;;;;;;;12.70;82.00;;;;;;5072101;28;20049;-77
2022/10/21 09:27:00;;;;;;;;;;;12.80;82.00;;;;;;5054719;28;19951;-77
2022/10/21 09:29:25;;;;;;;;;;;12.80;82.00;;;;;;5056304;28;20373;-77
2022/10/21 09:31:51;;;;;;;;;;;12.80;81.90;;;;;;5074982;28;19920;-76
2022/10/21 09:34:34;;;;;;;;;;;12.90;82.00;;;;;;5076009;28;19970;-77
2022/10/21 09:37:00;;;;;;;;;;;12.90;82.00;;;;;;5045214;28;20440;-77
2022/10/21 09:39:32;;;;;;;;;;;12.90;81.80;;;;;;5047036;28;19916;-77
2022/10/21 09:41:57;;;;;;;;;;;12.90;81.80;;;;;;5070859;28;20003;-78
2022/10/21 09:44:23;;;;;;;;;;;12.90;81.80;;;;;;5073215;28;20007;-77
2022/10/21 09:46:49;;;;;;;;;;;13.00;81.90;;;;;;5074535;28;19924;-76
2022/10/21 09:49:21;;;;;;;;;;;13.00;81.80;;;;;;5074146;28;19920;-77
2022/10/21 09:51:46;;;;;;;;;;;13.00;81.90;;;;;;5073570;28;20552;-76
2022/10/21 09:54:21;;;;;;;;;;;13.00;81.80;;;;;;5072197;28;19920;-76
2022/10/21 09:56:57;;;;;;;;;;;13.10;81.80;;;;;;5055180;28;20029;-76
2022/10/21 09:59:24;;;;;;;;;;;13.10;81.80;;;;;;5063611;28;20442;-77
2022/10/21 10:01:49;;;;;;;;;;;13.10;81.80;;;;;;5078541;28;19920;-77
2022/10/21 10:04:31;;;;;;;;;;;13.10;81.80;;;;;;5063334;28;20360;-78
2022/10/21 10:07:00;;;;;;;;;;;13.10;81.70;;;;;;5078934;28;19921;-77
2022/10/21 10:09:32;;;;;;;;;;;13.10;81.70;;;;;;5083678;28;19959;-78
2022/10/21 10:12:04;;;;;;;;;;;13.20;81.70;;;;;;5061894;28;20158;-77
2022/10/21 10:14:33;;;;;;;;;;;13.20;81.70;;;;;;5073592;28;19927;-77
2022/10/21 10:17:17;;;;;;;;;;;13.20;81.70;;;;;;5075629;28;19961;-78
2022/10/21 10:19:42;;;;;;;;;;;13.20;81.70;;;;;;5074634;28;19963;-78
2022/10/21 10:22:08;;;;;;;;;;;13.20;81.70;;;;;;5074368;28;19967;-78
2022/10/21 10:24:33;;;;;;;;;;;13.30;81.70;;;;;;5074108;28;20559;-77
2022/10/21 10:27:03;;;;;;;;;;;13.30;81.70;;;;;;5075385;28;19924;-76
2022/10/21 10:29:28;;;;;;;;;;;13.30;81.70;;;;;;5083055;28;19924;-77
2022/10/21 10:31:55;;;;;;;;;;;13.40;81.80;;;;;;5082085;28;20024;-77
2022/10/21 10:34:33;;;;;;;;;;;13.40;81.70;;;;;;5084506;28;19979;-78
2022/10/21 10:37:19;;;;;;;;;;;13.40;81.60;;;;;;5075182;28;19916;-77
2022/10/21 10:39:48;;;;;;;;;;;13.50;81.60;;;;;;5072867;28;19920;-77
2022/10/21 10:42:17;;;;;;;;;;;13.50;81.60;;;;;;5059257;28;20658;-78
2022/10/21 10:44:42;;;;;;;;;;;13.50;81.50;;;;;;5077002;28;19916;-78
2022/10/21 10:47:17;;;;;;;;;;;13.60;81.50;;;;;;5070507;28;19925;-78
2022/10/21 10:49:43;;;;;;;;;;;13.60;81.50;;;;;;5081346;28;20393;-78
2022/10/21 10:52:08;;;;;;;;;;;13.60;81.50;;;;;;5049913;28;19929;-77
2022/10/21 10:54:34;;;;;;;;;;;13.60;81.50;;;;;;5077036;28;19960;-77
2022/10/21 10:57:12;;;;;;;;;;;13.70;81.50;;;;;;5084374;28;19924;-78
2022/10/21 10:59:48;;;;;;;;;;;13.70;81.40;;;;;;5089457;28;19923;-80
2022/10/21 11:02:15;;;;;;;;;;;13.70;81.40;;;;;;5052242;28;20299;-75
2022/10/21 11:04:46;;;;;;;;;;;13.70;81.40;;;;;;5063853;28;19920;-79
2022/10/21 11:07:13;;;;;;;;;;;13.80;81.50;;;;;;5085747;28;19904;-78
2022/10/21 11:09:39;;;;;;;;;;;13.80;81.50;;;;;;5061568;28;19923;-76
2022/10/21 11:12:05;;;;;;;;;;;13.80;81.40;;;;;;5085892;28;20007;-78
2022/10/21 11:14:30;;;;;;;;;;;13.90;81.50;;;;;;5068731;28;19920;-77
2022/10/21 11:16:56;;;;;;;;;;;13.90;81.40;;;;;;5063613;28;19921;-79
2022/10/21 11:19:24;;;;;;;;;;;13.90;81.40;;;;;;5063690;28;20001;-79
2022/10/21 11:22:10;;;;;;;;;;;13.90;81.30;;;;;;5088944;28;19928;-79
2022/10/21 11:24:50;;;;;;;;;;;13.90;81.30;;;;;;5051789;28;19938;-79
2022/10/21 11:27:16;;;;;;;;;;;13.90;81.30;;;;;;5072276;28;19912;-79
2022/10/21 11:29:48;;;;;;;;;;;14.00;81.40;;;;;;5073442;28;20061;-77
2022/10/21 11:32:19;;;;;;;;;;;14.00;81.30;;;;;;5071209;28;19924;-79
2022/10/21 11:35:05;;;;;;;;;;;14.00;81.30;;;;;;5079091;28;19961;-78
2022/10/21 11:37:31;;;;;;;;;;;14.00;81.30;;;;;;5057101;28;19916;-78
2022/10/21 11:39:56;;;;;;;;;;;14.10;81.30;;;;;;5070982;28;19920;-79
2022/10/21 11:42:24;;;;;;;;;;;14.10;81.30;;;;;;5089098;28;19924;-79
2022/10/21 11:44:58;;;;;;;;;;;14.10;81.30;;;;;;5084605;28;19920;-78
2022/10/21 11:47:30;;;;;;;;;;;14.10;81.20;;;;;;5090286;28;19916;-79
2022/10/21 11:49:59;;;;;;;;;;;14.20;81.20;;;;;;5089899;28;19948;-79
2022/10/21 11:52:41;;;;;;;;;;;14.20;81.20;;;;;;5074011;28;19927;-79
2022/10/21 11:55:12;;;;;;;;;;;14.20;81.20;;;;;;5055592;28;19956;-79
2022/10/21 11:58:07;;;;;;;;;;;14.30;81.20;;;;;;5082630;28;20046;-79
2022/10/21 12:00:42;;;;;;;;;;;14.30;81.20;;;;;;5038696;28;19997;-79
2022/10/21 12:03:26;;;;;;;;;;;14.30;81.20;;;;;;5072504;28;19926;-77
2022/10/21 12:05:55;;;;;;;;;;;14.30;81.20;;;;;;5087089;28;19921;-79
2022/10/21 12:08:23;;;;;;;;;;;14.40;81.20;;;;;;5086883;28;19916;-78
2022/10/21 12:10:53;;;;;;;;;;;14.40;81.20;;;;;;5091192;28;20262;-78
2022/10/21 12:13:20;;;;;;;;;;;14.40;81.10;;;;;;5060528;28;19982;-79
2022/10/21 12:16:12;;;;;;;;;;;14.50;81.10;;;;;;5085220;28;19920;-79
2022/10/21 12:18:41;;;;;;;;;;;14.50;81.10;;;;;;5052254;28;19916;-79
2022/10/21 12:21:07;;;;;;;;;;;14.60;81.10;;;;;;5073545;28;20625;-78
2022/10/21 12:23:33;;;;;;;;;;;14.70;81.10;;;;;;5068100;28;19920;-78
2022/10/21 12:26:09;;;;;;;;;;;14.80;81.00;;;;;;5047100;28;19920;-78
2022/10/21 12:28:40;;;;;;;;;;;14.80;80.90;;;;;;5063901;28;19920;-78
2022/10/21 12:31:08;;;;;;;;;;;15.00;81.00;;;;;;5083671;28;19951;-79
2022/10/21 12:33:37;;;;;;;;;;;15.10;80.90;;;;;;5075280;28;20566;-79
2022/10/21 12:36:21;;;;;;;;;;;15.20;80.80;;;;;;5081646;28;20012;-79
2022/10/21 12:38:59;;;;;;;;;;;15.30;80.80;;;;;;5068801;28;19924;-79
2022/10/21 12:41:33;;;;;;;;;;;15.40;80.70;;;;;;5079401;28;19969;-79
2022/10/21 12:44:20;;;;;;;;;;;15.50;80.50;;;;;;5075018;28;20038;-80
2022/10/21 12:46:55;;;;;;;;;;;15.70;80.50;;;;;;5075955;28;19916;-80
2022/10/21 12:49:31;;;;;;;;;;;15.80;80.30;;;;;;5062187;28;19923;-82
2022/10/21 12:51:57;;;;;;;;;;;15.90;80.30;;;;;;5075614;28;19928;-81
2022/10/21 12:54:23;;;;;;;;;;;16.00;80.20;;;;;;5077732;28;19924;-81
2022/10/21 12:56:49;;;;;;;;;;;16.10;80.10;;;;;;5072318;28;20453;-80
2022/10/21 12:59:44;;;;;;;;;;;16.20;80.00;;;;;;5071620;28;19923;-82
2022/10/21 13:02:20;;;;;;;;;;;16.30;79.90;;;;;;5062613;28;19916;-80
2022/10/21 13:04:49;;;;;;;;;;;16.50;79.80;;;;;;5075027;28;19915;-80
2022/10/21 13:07:15;;;;;;;;;;;16.60;79.80;;;;;;5075636;28;19920;-80
2022/10/21 13:09:55;;;;;;;;;;;16.70;79.70;;;;;;5063063;28;20061;-79
2022/10/21 13:12:24;;;;;;;;;;;16.70;79.50;;;;;;5078378;28;19912;-82
2022/10/21 13:14:49;;;;;;;;;;;16.90;79.50;;;;;;5063596;28;20007;-80
2022/10/21 13:17:20;;;;;;;;;;;16.90;79.30;;;;;;5082941;28;20566;-82
2022/10/21 13:19:49;;;;;;;;;;;17.00;79.30;;;;;;5081393;28;19977;-80
2022/10/21 13:22:22;;;;;;;;;;;17.00;79.20;;;;;;5071125;28;19920;-80
2022/10/21 13:24:47;;;;;;;;;;;17.00;79.20;;;;;;5072391;28;19916;-80
2022/10/21 13:27:24;;;;;;;;;;;17.10;79.20;;;;;;5067601;28;19961;-81
2022/10/21 13:29:49;;;;;;;;;;;17.10;79.20;;;;;;5070866;28;20007;-80
2022/10/21 13:32:17;;;;;;;;;;;17.20;79.30;;;;;;5066313;28;20438;-80
2022/10/21 13:34:46;;;;;;;;;;;17.20;79.20;;;;;;5070714;28;19928;-80
2022/10/21 13:37:12;;;;;;;;;;;17.20;79.20;;;;;;5085146;28;19924;-81
2022/10/21 13:39:37;;;;;;;;;;;17.20;79.20;;;;;;5090031;28;19943;-81
2022/10/21 13:42:04;;;;;;;;;;;17.20;79.20;;;;;;5083285;28;19924;-81
2022/10/21 13:44:36;;;;;;;;;;;17.20;79.20;;;;;;5069017;28;19950;-82
2022/10/21 13:47:21;;;;;;;;;;;17.20;79.20;;;;;;5057015;28;19959;-82
2022/10/21 13:49:52;;;;;;;;;;;17.30;79.20;;;;;;5088392;28;20273;-82
2022/10/21 13:52:18;;;;;;;;;;;17.30;79.20;;;;;;5086709;28;19932;-81
2022/10/21 13:54:55;;;;;;;;;;;17.30;79.20;;;;;;5065755;28;20157;-82
2022/10/21 13:57:20;;;;;;;;;;;17.40;80.10;;;;;;5055897;28;20073;-80
2022/10/21 13:59:46;;;;;;;;;;;17.40;79.20;;;;;;5073651;28;20380;-80
2022/10/21 14:02:24;;;;;;;;;;;17.50;79.20;;;;;;5088583;28;20354;-81
2022/10/21 14:04:49;;;;;;;;;;;17.50;79.10;;;;;;5058399;28;19943;-81
2022/10/21 14:07:16;;;;;;;;;;;17.50;79.10;;;;;;5078218;28;20032;-80
2022/10/21 14:09:43;;;;;;;;;;;17.60;79.10;;;;;;5059070;28;19921;-81
2022/10/21 14:12:16;;;;;;;;;;;17.60;79.10;;;;;;5067788;28;19931;-81
2022/10/21 14:14:42;;;;;;;;;;;17.60;79.10;;;;;;5069993;28;19997;-82
2022/10/21 14:17:12;;;;;;;;;;;17.70;79.20;;;;;;5072320;28;19920;-81
2022/10/21 14:19:37;;;;;;;;;;;17.80;79.20;;;;;;5041979;28;19924;-80
2022/10/21 14:22:03;;;;;;;;;;;17.80;79.10;;;;;;5067705;28;20444;-80